KAST/AST METAR and TAF weather

Enter ICAO airport designator
Station Type Date Time Source
KAST METAR 2019/04/22 23:55 UTC NOAA

KAST 222355Z AUTO 22007KT 170V260 10SM -RA OVC030 12/07 A3029 RMK AO2 RAB27 SLP257 P0000 60001 T01170067 10128 20100 56001


Station Type Date Time Source
KAST Decoded METAR 2019/04/22 23:55 UTC NOAA

PORT OF ASTORIA AIRPORT, OR, United States (KAST) 46-09N 123-53W 3M
Apr 22, 2019 - 07:55 PM EDT / 2019.04.22 2355 UTC
Wind: from the SW (220 degrees) at 8 MPH (7 KT) (direction variable):0
Visibility: 10 mile(s):0
Sky conditions: overcast
Weather: light rain
Precipitation last hour: A trace
Temperature: 53.1 F (11.7 C)
Dew Point: 44.1 F (6.7 C)
Relative Humidity: 71%
Pressure (altimeter): 30.29 in. Hg (1025 hPa)
Pressure tendency: 0.00 inches (0.1 hPa) lower than three hours ago
ob: KAST 222355Z AUTO 22007KT 170V260 10SM -RA OVC030 12/07 A3029 RMK AO2 RAB27 SLP257 P0000 60001 T01170067 10128 20100 56001
cycle: 0

Station Type Date Time Source
KAST TAF 2019/04/22 18:34 UTC NOAA

TAF KAST 221732Z 2218/2318 16004KT P6SM OVC050
FM221900 19010KT 6SM -RA SCT025 OVC040
FM222300 22010G18KT 5SM -RA BR BKN015 OVC025
FM230300 22008KT P6SM -SHRA BKN015 OVC025
FM230500 22003KT 6SM BR OVC007
FM231500 25004KT 6SM BR OVC015

Example: see airport list